New Creation — 3EGO6 — position and weather

sailwx.info

Track history (hours):
 
Tides and Currents Weather Stations Pressure Air Temp Water Temp Dewpoint Dewpoint Depression Visibility Wind Speed Wind Dir Waves Ship Positions

New Creation

Last reported at 2015-Jun-09 13:24 UTC. Time now 2015-Jun-30 14:28 UTC.
Position N 37°20' E 126°26'.
Warning: this ship's position is 21 days out of date.

Length 176 m; draft 6.5 m.

Type: Cargo ship. MMSI: 353507000.

Date/timePositionNaut miles runAvg speedWind from/ knotsBaromVisibWave heightAir tempDewpointWater temp
2015-Jun-09 13:24N 37°20' E 126°26'0 0.0
2015-Jun-09 12:27N 37°20' E 126°26'0 0.0
2015-Jun-09 11:31N 37°20' E 126°26'0 0.2
2015-Jun-09 10:16N 37°20' E 126°26'910.1
2015-Jun-09 09:21N 37°11' E 126°23'1313.4
2015-Jun-09 08:24N 37°02' E 126°11'10711.5
2015-Jun-08 23:05N 37°38' E 124°05'713.6
2015-Jun-08 22:32N 37°42' E 123°57'1914.0
2015-Jun-08 21:12N 37°52' E 123°37'1014.1
2015-Jun-08 20:31N 37°58' E 123°27'1314.1
2015-Jun-08 19:33N 38°05' E 123°13'1413.7
2015-Jun-08 18:33N 38°13' E 122°58'1313.2
2015-Jun-08 17:33N 38°20' E 122°44'1312.9
2015-Jun-08 16:33N 38°27' E 122°30'1313.1
2015-Jun-08 15:33N 38°34' E 122°17'1313.3
2015-Jun-08 14:33N 38°42' E 122°02'1313.3
2015-Jun-08 13:33N 38°50' E 121°49'1010.3
2015-Jun-08 12:33N 38°60' E 121°46'1 1.1
2015-Jun-08 11:25N 39°01' E 121°45'0 0.0
2015-Jun-08 10:31N 39°01' E 121°45'0 0.0
2015-Jun-08 09:31N 39°01' E 121°45'0 0.0
2015-Jun-08 08:31N 39°01' E 121°45'0 0.0
2015-Jun-08 07:31N 39°01' E 121°45'0 0.0
2015-Jun-07 18:31N 39°01' E 121°45'0 0.0
2015-Jun-07 17:31N 39°01' E 121°45'0 0.0
2015-Jun-07 16:25N 39°01' E 121°45'0 0.0
2015-Jun-06 07:19N 39°01' E 121°45'0 0.0
2015-Jun-05 19:19N 39°01' E 121°45'0 0.0
2015-Jun-05 08:04N 39°01' E 121°46'14 7.0
2015-Jun-05 06:07N 38°51' E 121°58'2 0.1
2015-Jun-03 16:29N 38°52' E 122°01'0 0.0
2015-Jun-03 05:32N 38°52' E 122°01'1 1.0
2015-Jun-03 04:24N 38°51' E 122°01'4812.5
2015-Jun-03 00:33N 38°10' E 122°34'1413.5
2015-Jun-02 23:33N 37°59' E 122°43'1413.8
2015-Jun-02 22:33N 37°48' E 122°53'1413.5
2015-Jun-02 21:33N 37°36' E 123°03'1414.3
2015-Jun-02 20:33N 37°22' E 123°03'1413.6
2015-Jun-02 19:33N 37°09' E 123°03'1313.1
2015-Jun-02 18:33N 36°55' E 123°03'1312.7
2015-Jun-02 17:33N 36°43' E 123°03'1312.7
2015-Jun-02 16:32N 36°30' E 123°03'4112.8
2015-Jun-02 13:20N 35°49' E 123°03'22713.2
2015-Jun-01 20:09N 32°02' E 122°49'913.0
2015-Jun-01 19:27N 31°53' E 122°48'5710.8
2015-Jun-01 14:12N 31°02' E 122°19'6 9.5
2015-Jun-01 13:33N 31°03' E 122°12'8 8.4
2015-Jun-01 12:34N 31°05' E 122°02'8 8.1
2015-Jun-01 11:33N 31°09' E 121°54'1312.8
2015-Jun-01 10:33N 31°18' E 121°44'1211.7
2015-Jun-01 09:33N 31°24' E 121°32'8 8.2
2015-Jun-01 08:33N 31°30' E 121°25'1010.2
2015-Jun-01 07:33N 31°37' E 121°16'1010.4
2015-Jun-01 06:33N 31°44' E 121°07'1111.0
2015-Jun-01 05:32N 31°48' E 120°55'13 4.5
2015-Jun-01 02:34N 32°00' E 120°47'0 0.0
2015-Jun-01 01:04N 32°00' E 120°47'0 0.0
2015-Jun-01 00:27N 32°00' E 120°47'0 0.1
2015-May-31 23:33N 32°00' E 120°47'0 0.0
2015-May-31 22:28N 32°00' E 120°47'0 0.0
2015-May-31 21:28N 32°00' E 120°47'0 0.0
2015-May-31 20:22N 32°00' E 120°47'0 0.1
2015-May-31 19:30N 32°00' E 120°47'0 0.1
2015-May-31 18:16N 32°00' E 120°47'0 0.0
2015-May-31 17:27N 32°00' E 120°47'0 0.0
2015-May-31 16:30N 32°00' E 120°47'0 0.1
2015-May-31 15:33N 32°00' E 120°47'0 0.1
2015-May-31 14:30N 32°00' E 120°47'0 0.0
2015-May-31 13:27N 32°00' E 120°47'0 0.0
2015-May-31 12:34N 32°00' E 120°47'0 0.0
2015-May-31 11:12N 32°00' E 120°47'0 0.0
2015-May-31 10:30N 32°00' E 120°47'0 0.0
2015-May-31 09:28N 32°00' E 120°47'0 0.0
2015-May-31 08:21N 32°00' E 120°47'0 0.0
2015-May-31 07:24N 32°00' E 120°47'0 0.0
2015-May-31 06:33N 32°00' E 120°47'0 0.1
2015-May-31 05:30N 32°00' E 120°47'0 0.1
2015-May-31 04:09N 32°00' E 120°47'0 0.1
2015-May-31 03:27N 32°00' E 120°47'0 0.0
2015-May-31 02:33N 32°00' E 120°47'0 0.0
2015-May-31 01:28N 32°00' E 120°47'0 0.0
2015-May-31 00:33N 32°00' E 120°47'0 0.0
2015-May-30 23:33N 32°00' E 120°47'0 0.0
2015-May-30 22:27N 32°00' E 120°47'0 0.0
2015-May-30 21:21N 32°00' E 120°47'0 0.0
2015-May-30 20:24N 32°00' E 120°47'0 0.0
2015-May-30 19:28N 32°00' E 120°47'0 0.1
2015-May-30 18:24N 32°00' E 120°47'0 0.2
2015-May-30 17:33N 32°00' E 120°47'0 0.0
2015-May-30 16:15N 32°00' E 120°47'0 0.1
2015-May-30 15:33N 32°00' E 120°47'0 0.1
2015-May-30 14:21N 32°00' E 120°47'0 0.0
2015-May-30 13:33N 32°00' E 120°47'  
Track history (hours):
 
Tides and Currents Weather Stations Pressure Air Temp Water Temp Dewpoint Dewpoint Depression Visibility Wind Speed Wind Dir Waves Ship Positions

New Creation

Last reported at 2015-Jun-09 13:24 UTC. Time now 2015-Jun-30 14:28 UTC.
Position N 37°20' E 126°26'.
Warning: this ship's position is 21 days out of date.

Length 176 m; draft 6.5 m.

Type: Cargo ship. MMSI: 353507000.

Date/timePositionNaut miles runAvg speedWind from/ knotsBaromVisibWave heightAir tempDewpointWater temp
2015-Jun-09 13:24N 37°20' E 126°26'0 0.0
2015-Jun-09 12:27N 37°20' E 126°26'0 0.0
2015-Jun-09 11:31N 37°20' E 126°26'0 0.2
2015-Jun-09 10:16N 37°20' E 126°26'910.1
2015-Jun-09 09:21N 37°11' E 126°23'1313.4
2015-Jun-09 08:24N 37°02' E 126°11'10711.5
2015-Jun-08 23:05N 37°38' E 124°05'713.6
2015-Jun-08 22:32N 37°42' E 123°57'1914.0
2015-Jun-08 21:12N 37°52' E 123°37'1014.1
2015-Jun-08 20:31N 37°58' E 123°27'1314.1
2015-Jun-08 19:33N 38°05' E 123°13'1413.7
2015-Jun-08 18:33N 38°13' E 122°58'1313.2
2015-Jun-08 17:33N 38°20' E 122°44'1312.9
2015-Jun-08 16:33N 38°27' E 122°30'1313.1
2015-Jun-08 15:33N 38°34' E 122°17'1313.3
2015-Jun-08 14:33N 38°42' E 122°02'1313.3
2015-Jun-08 13:33N 38°50' E 121°49'1010.3
2015-Jun-08 12:33N 38°60' E 121°46'1 1.1
2015-Jun-08 11:25N 39°01' E 121°45'0 0.0
2015-Jun-08 10:31N 39°01' E 121°45'0 0.0
2015-Jun-08 09:31N 39°01' E 121°45'0 0.0
2015-Jun-08 08:31N 39°01' E 121°45'0 0.0
2015-Jun-08 07:31N 39°01' E 121°45'0 0.0
2015-Jun-07 18:31N 39°01' E 121°45'0 0.0
2015-Jun-07 17:31N 39°01' E 121°45'0 0.0
2015-Jun-07 16:25N 39°01' E 121°45'0 0.0
2015-Jun-06 07:19N 39°01' E 121°45'0 0.0
2015-Jun-05 19:19N 39°01' E 121°45'0 0.0
2015-Jun-05 08:04N 39°01' E 121°46'14 7.0
2015-Jun-05 06:07N 38°51' E 121°58'2 0.1
2015-Jun-03 16:29N 38°52' E 122°01'0 0.0
2015-Jun-03 05:32N 38°52' E 122°01'1 1.0
2015-Jun-03 04:24N 38°51' E 122°01'4812.5
2015-Jun-03 00:33N 38°10' E 122°34'1413.5
2015-Jun-02 23:33N 37°59' E 122°43'1413.8
2015-Jun-02 22:33N 37°48' E 122°53'1413.5
2015-Jun-02 21:33N 37°36' E 123°03'1414.3
2015-Jun-02 20:33N 37°22' E 123°03'1413.6
2015-Jun-02 19:33N 37°09' E 123°03'1313.1
2015-Jun-02 18:33N 36°55' E 123°03'1312.7
2015-Jun-02 17:33N 36°43' E 123°03'1312.7
2015-Jun-02 16:32N 36°30' E 123°03'4112.8
2015-Jun-02 13:20N 35°49' E 123°03'22713.2
2015-Jun-01 20:09N 32°02' E 122°49'913.0
2015-Jun-01 19:27N 31°53' E 122°48'5710.8
2015-Jun-01 14:12N 31°02' E 122°19'6 9.5
2015-Jun-01 13:33N 31°03' E 122°12'8 8.4
2015-Jun-01 12:34N 31°05' E 122°02'8 8.1
2015-Jun-01 11:33N 31°09' E 121°54'1312.8
2015-Jun-01 10:33N 31°18' E 121°44'1211.7
2015-Jun-01 09:33N 31°24' E 121°32'8 8.2
2015-Jun-01 08:33N 31°30' E 121°25'1010.2
2015-Jun-01 07:33N 31°37' E 121°16'1010.4
2015-Jun-01 06:33N 31°44' E 121°07'1111.0
2015-Jun-01 05:32N 31°48' E 120°55'13 4.5
2015-Jun-01 02:34N 32°00' E 120°47'0 0.0
2015-Jun-01 01:04N 32°00' E 120°47'0 0.0
2015-Jun-01 00:27N 32°00' E 120°47'0 0.1
2015-May-31 23:33N 32°00' E 120°47'0 0.0
2015-May-31 22:28N 32°00' E 120°47'0 0.0
2015-May-31 21:28N 32°00' E 120°47'0 0.0
2015-May-31 20:22N 32°00' E 120°47'0 0.1
2015-May-31 19:30N 32°00' E 120°47'0 0.1
2015-May-31 18:16N 32°00' E 120°47'0 0.0
2015-May-31 17:27N 32°00' E 120°47'0 0.0
2015-May-31 16:30N 32°00' E 120°47'0 0.1
2015-May-31 15:33N 32°00' E 120°47'0 0.1
2015-May-31 14:30N 32°00' E 120°47'0 0.0
2015-May-31 13:27N 32°00' E 120°47'0 0.0
2015-May-31 12:34N 32°00' E 120°47'0 0.0
2015-May-31 11:12N 32°00' E 120°47'0 0.0
2015-May-31 10:30N 32°00' E 120°47'0 0.0
2015-May-31 09:28N 32°00' E 120°47'0 0.0
2015-May-31 08:21N 32°00' E 120°47'0 0.0
2015-May-31 07:24N 32°00' E 120°47'0 0.0
2015-May-31 06:33N 32°00' E 120°47'0 0.1
2015-May-31 05:30N 32°00' E 120°47'0 0.1
2015-May-31 04:09N 32°00' E 120°47'0 0.1
2015-May-31 03:27N 32°00' E 120°47'0 0.0
2015-May-31 02:33N 32°00' E 120°47'0 0.0
2015-May-31 01:28N 32°00' E 120°47'0 0.0
2015-May-31 00:33N 32°00' E 120°47'0 0.0
2015-May-30 23:33N 32°00' E 120°47'0 0.0
2015-May-30 22:27N 32°00' E 120°47'0 0.0
2015-May-30 21:21N 32°00' E 120°47'0 0.0
2015-May-30 20:24N 32°00' E 120°47'0 0.0
2015-May-30 19:28N 32°00' E 120°47'0 0.1
2015-May-30 18:24N 32°00' E 120°47'0 0.2
2015-May-30 17:33N 32°00' E 120°47'0 0.0
2015-May-30 16:15N 32°00' E 120°47'0 0.1
2015-May-30 15:33N 32°00' E 120°47'0 0.1
2015-May-30 14:21N 32°00' E 120°47'0 0.0
2015-May-30 13:33N 32°00' E 120°47'  

Dump ship's entire track history